createdAt,value
2022-10-07T00:03:34.706Z,15.35
2022-10-07T00:09:36.486Z,15.54
2022-10-07T00:21:55.182Z,14.79
2022-10-07T00:27:57.056Z,15.26
2022-10-07T00:34:05.585Z,15.45
2022-10-07T00:40:07.786Z,15.51
2022-10-07T00:46:37.098Z,15.17
2022-10-07T00:52:43.369Z,15.45
2022-10-07T00:58:48.142Z,15.04
2022-10-07T01:04:51.772Z,14.99
2022-10-07T01:11:14.200Z,15.43
2022-10-07T01:17:34.698Z,15.38
2022-10-07T01:23:42.693Z,15.35
2022-10-07T01:30:04.647Z,15.20
2022-10-07T01:36:14.662Z,14.93
2022-10-07T01:42:17.723Z,15.36
2022-10-07T01:48:21.195Z,14.53
2022-10-07T01:54:28.588Z,15.26
2022-10-07T02:00:31.418Z,15.28
2022-10-07T02:06:59.412Z,15.22
2022-10-07T02:13:27.027Z,15.24
2022-10-07T02:19:36.229Z,15.26
2022-10-07T02:25:47.294Z,15.22
2022-10-07T02:31:51.721Z,15.09
2022-10-07T02:38:03.189Z,14.94
2022-10-07T02:44:22.256Z,14.96
2022-10-07T02:50:27.646Z,15.25
2022-10-07T03:03:11.357Z,15.21
2022-10-07T03:09:21.905Z,14.54
2022-10-07T03:15:25.853Z,14.41
2022-10-07T03:21:28.203Z,15.15
2022-10-07T03:27:30.221Z,14.88
2022-10-07T03:33:32.135Z,15.00
2022-10-07T03:39:33.936Z,14.56
2022-10-07T03:45:37.543Z,14.70
2022-10-07T03:51:42.402Z,14.71
2022-10-07T03:57:59.679Z,14.78
2022-10-07T04:04:02.297Z,14.43
2022-10-07T04:10:04.399Z,14.85
2022-10-07T04:16:08.457Z,14.25
2022-10-07T04:22:10.349Z,14.75
2022-10-07T04:28:18.656Z,14.89
2022-10-07T04:34:23.608Z,14.15
2022-10-07T04:46:51.194Z,14.47
2022-10-07T04:52:53.976Z,14.72
2022-10-07T04:58:56.475Z,14.78
2022-10-07T05:11:23.543Z,15.30
2022-10-07T05:17:26.138Z,15.30
2022-10-07T05:49:08.781Z,14.92
2022-10-07T06:01:41.704Z,15.47
2022-10-07T06:14:04.140Z,15.02
2022-10-07T06:39:59.356Z,15.77
2022-10-07T07:18:30.381Z,16.91
2022-10-07T12:16:22.445Z,21.81
2022-10-07T13:15:59.623Z,20.29
2022-10-07T14:12:52.266Z,20.70
2022-10-07T14:19:07.026Z,19.89
2022-10-07T14:25:22.267Z,20.00
2022-10-07T14:31:45.824Z,19.26
2022-10-07T14:37:48.806Z,19.53
2022-10-07T14:43:52.112Z,19.44
2022-10-07T14:50:00.884Z,19.27
2022-10-07T14:56:02.895Z,19.02
2022-10-07T15:08:21.705Z,18.95
2022-10-07T15:14:23.868Z,19.15
2022-10-07T15:20:26.576Z,19.03
2022-10-07T15:26:28.943Z,19.34
2022-10-07T15:32:30.893Z,18.94
2022-10-07T15:38:32.684Z,19.18
2022-10-07T15:44:34.579Z,19.13
2022-10-07T15:50:36.574Z,18.89
2022-10-07T15:56:39.528Z,18.84
2022-10-07T16:02:44.008Z,18.02
2022-10-07T16:08:46.098Z,18.58
2022-10-07T16:21:09.933Z,18.34
2022-10-07T16:27:11.748Z,18.50
2022-10-07T16:33:13.501Z,18.01
2022-10-07T16:39:18.978Z,18.01
2022-10-07T16:45:21.266Z,18.41
2022-10-07T16:51:33.358Z,18.24
2022-10-07T16:57:37.407Z,18.43
2022-10-07T17:03:45.371Z,18.00
2022-10-07T17:09:47.180Z,17.99
2022-10-07T17:15:52.698Z,18.06
2022-10-07T17:21:56.003Z,18.23
2022-10-07T17:27:57.865Z,17.96
2022-10-07T17:34:00.092Z,17.67
2022-10-07T17:40:01.891Z,18.26
2022-10-07T17:46:05.252Z,18.06
2022-10-07T17:52:09.091Z,17.90
2022-10-07T17:58:10.806Z,18.17
2022-10-07T18:04:17.116Z,17.94
2022-10-07T18:10:21.823Z,17.87
2022-10-07T18:16:23.917Z,16.56
2022-10-07T18:22:25.852Z,16.38
2022-10-07T18:28:27.668Z,15.88
2022-10-07T18:34:29.475Z,15.68
2022-10-07T18:40:31.329Z,16.17
2022-10-07T18:46:33.309Z,17.06
2022-10-07T18:52:35.069Z,16.95
2022-10-07T18:58:39.156Z,17.25
2022-10-07T19:04:40.968Z,16.91
2022-10-07T19:10:43.184Z,17.20
2022-10-07T19:16:49.249Z,17.13
2022-10-07T19:22:51.284Z,15.43
2022-10-07T19:28:54.553Z,16.35
2022-10-07T19:34:56.330Z,16.78
2022-10-07T19:40:58.059Z,16.61
2022-10-07T19:47:01.489Z,16.05
2022-10-07T19:53:05.139Z,16.40
2022-10-07T19:59:09.214Z,15.43
2022-10-07T20:05:10.908Z,15.00
2022-10-07T20:11:13.363Z,16.02
2022-10-07T20:17:15.158Z,16.04
2022-10-07T20:23:16.952Z,15.77
2022-10-07T20:29:24.087Z,15.58
2022-10-07T20:35:31.741Z,15.01
2022-10-07T20:41:53.861Z,14.77
2022-10-07T20:47:59.609Z,14.46
2022-10-07T20:54:03.550Z,14.97
2022-10-07T21:00:09.452Z,14.85
2022-10-07T21:06:11.220Z,14.97
2022-10-07T21:12:16.014Z,14.65
2022-10-07T21:18:19.197Z,14.63
2022-10-07T21:24:20.879Z,14.85
2022-10-07T21:30:22.694Z,13.33
2022-10-07T21:36:24.557Z,14.12
2022-10-07T21:42:26.339Z,12.59
2022-10-07T21:48:31.612Z,13.65
2022-10-07T21:54:33.349Z,14.09
2022-10-07T22:00:36.172Z,12.07
2022-10-07T22:06:56.331Z,12.20
2022-10-07T22:12:58.068Z,13.64
2022-10-07T22:18:59.840Z,13.59
2022-10-07T22:25:01.547Z,12.98
2022-10-07T22:31:05.689Z,11.32
2022-10-07T22:37:07.477Z,13.26
2022-10-07T22:43:09.648Z,13.04
2022-10-07T22:49:12.037Z,12.99
2022-10-07T22:55:13.806Z,13.20
2022-10-07T23:01:16.796Z,12.96
2022-10-07T23:07:18.845Z,13.00
2022-10-07T23:13:20.549Z,12.74
2022-10-07T23:19:22.305Z,12.52
2022-10-07T23:25:25.159Z,12.91
2022-10-07T23:31:28.929Z,13.46
2022-10-07T23:37:30.697Z,13.03
2022-10-07T23:43:33.689Z,12.87
2022-10-07T23:49:35.444Z,13.28
2022-10-07T23:55:37.203Z,13.28
